AIRPORT ID: 6E5

DATE: 2021-12-09 ZULU TIME: 0.55 LOCAL TIME: 18.55


METAR K6E5 090055Z AUTO 12013G21KT 10SM M02/M09 A2960

ALTIMETER: A2960 Q1002

DENSITY ALT: 600 Ft

WIND DIRECT: 130

WIND SPEED: 13 Gust

WIND CONDITIONS:

VISIBILTY: 10SM 9999M

TEMPERATURE: 29 F -2 C

DEW POINT: 16 F -9 C

HUMID: 58%

LCL: 1,000-3,000 feet

RADIO CHECK: 0

ADVISARIES: 0

GREETINGS: 0

CONVERSATIONS: 0